Aérodrome :
LOGIN :

S'inscrire | Disclaimer

   EN    FR    IT 

 










Légende :    VFR   VFR Marginal   IFR   IFR Intensif   IFR Très Intensif
Visi : 
Plafond : 
>= 8 km
>= 3000ft
5 à 8 km
1000 à 3000 ft
1500m à 5 km
500 à 1000 ft
800 à 1500m
200 à 500 ft
< 800m
< 200 ft
Symboles :   Orages  Brouillard  Fortes neiges  Fortes précipitations  Vent > 20 kt
SIGMETs :   Divers  Orages  Givrage  Turbulence  Onde Orograph.  Cendres Volcan.







- Altitude de l'aérodrome : 386 ft
- Code IATA : QOE


ETNN - Nörvenich Airforce Base

DERNIER METAR :
  • 211847Z 31005KT 9999 SCT022 BKN070 12/10 Q1016 BLU

METARs EXPIRÉS :
  • 211820Z 32006KT 9999 BKN018 BKN070 12/11 Q1016 WHT
  • 211802Z 32006KT 8000 BKN018 BKN070 12/11 Q1016 WHT
  • 211749Z 30005KT 5000 BR BKN015 BKN045 12/11 Q1016 WHT
  • 211720Z 29005KT 4000 BR BKN010 BKN030 12/11 Q1016 GRN
  • 211620Z 29006KT 3700 -RA BR FEW006 BKN013 11/11 Q1016 GRN

TAF TAF ETNN
Valide du 21 à 17h jusqu'au 22 à 02h UTC


211600Z 2117/2202 30010KT 7000 -RADZ SCT010 BKN018
TEMPO 2117/2119 30012G22KT 3000 DZRA SCT005 BKN010
BECMG 2119/2121 29008KT 5000 BR BKN007
TEMPO 2200/2202 29005KT 2000 BR BKN003 BY ETGL
Pas de NOTAMs connus pour ce terrain.



MET'MAP, la Météo Aéronautique d'un coup d'oeil ! - Copyright ORBIFLY Décembre 2007 - Disclaimer

ORBIFLY MET'MAP TEAM :

Programmation & Développement : Alexandra Zaïnal
Conception & Développement : Baudouin d'Aumeries
Co-Programmation & Développement : Marc-Olivier Méhu
Soutien technique & logistique : Manuel Goepfert

Contact : metmap@orbifly.com




SOURCES & CREDITS :

   NOAA